sensor_id;sensor_type;location;lat;lon;timestamp;pressure;altitude;pressure_sealevel;temperature;humidity
85224;BME280;75619;51.316;4.824;2024-02-16T00:01:00;100749.50;;;10.68;100.00
85224;BME280;75619;51.316;4.824;2024-02-16T00:03:27;100745.03;;;10.68;100.00
85224;BME280;75619;51.316;4.824;2024-02-16T00:05:52;100743.25;;;10.69;100.00
85224;BME280;75619;51.316;4.824;2024-02-16T00:08:19;100746.72;;;10.69;100.00
85224;BME280;75619;51.316;4.824;2024-02-16T00:10:46;100747.81;;;10.67;100.00
85224;BME280;75619;51.316;4.824;2024-02-16T00:13:12;100751.38;;;10.66;100.00
85224;BME280;75619;51.316;4.824;2024-02-16T00:15:37;100745.50;;;10.62;100.00
85224;BME280;75619;51.316;4.824;2024-02-16T00:18:05;100742.97;;;10.61;100.00
85224;BME280;75619;51.316;4.824;2024-02-16T00:20:30;100751.13;;;10.57;100.00
85224;BME280;75619;51.316;4.824;2024-02-16T00:22:57;100742.59;;;10.54;100.00
85224;BME280;75619;51.316;4.824;2024-02-16T00:25:23;100736.13;;;10.58;100.00
85224;BME280;75619;51.316;4.824;2024-02-16T00:27:49;100742.59;;;10.54;100.00
85224;BME280;75619;51.316;4.824;2024-02-16T00:30:16;100731.91;;;10.55;100.00
85224;BME280;75619;51.316;4.824;2024-02-16T00:32:43;100738.53;;;10.61;100.00
85224;BME280;75619;51.316;4.824;2024-02-16T00:35:11;100735.81;;;10.74;100.00
85224;BME280;75619;51.316;4.824;2024-02-16T00:37:37;100733.16;;;10.74;100.00
85224;BME280;75619;51.316;4.824;2024-02-16T00:40:04;100728.59;;;10.76;100.00
85224;BME280;75619;51.316;4.824;2024-02-16T00:42:31;100719.81;;;10.75;100.00
85224;BME280;75619;51.316;4.824;2024-02-16T00:44:57;100728.69;;;10.74;100.00
85224;BME280;75619;51.316;4.824;2024-02-16T00:47:26;100722.81;;;10.71;100.00
85224;BME280;75619;51.316;4.824;2024-02-16T00:49:52;100717.41;;;10.72;100.00
85224;BME280;75619;51.316;4.824;2024-02-16T00:52:18;100712.00;;;10.74;100.00
85224;BME280;75619;51.316;4.824;2024-02-16T00:54:44;100709.72;;;10.69;100.00
85224;BME280;75619;51.316;4.824;2024-02-16T00:57:10;100712.00;;;10.74;100.00
85224;BME280;75619;51.316;4.824;2024-02-16T00:59:36;100714.03;;;10.70;100.00
85224;BME280;75619;51.316;4.824;2024-02-16T01:02:01;100710.19;;;10.63;100.00
85224;BME280;75619;51.316;4.824;2024-02-16T01:04:27;100706.91;;;10.59;100.00
85224;BME280;75619;51.316;4.824;2024-02-16T01:06:53;100712.22;;;10.59;100.00
85224;BME280;75619;51.316;4.824;2024-02-16T01:09:18;100707.38;;;10.53;100.00
85224;BME280;75619;51.316;4.824;2024-02-16T01:11:44;100701.00;;;10.45;100.00
85224;BME280;75619;51.316;4.824;2024-02-16T01:14:09;100702.69;;;10.46;100.00
85224;BME280;75619;51.316;4.824;2024-02-16T01:16:35;100699.09;;;10.47;100.00
85224;BME280;75619;51.316;4.824;2024-02-16T01:19:01;100700.28;;;10.43;100.00
85224;BME280;75619;51.316;4.824;2024-02-16T01:21:27;100701.72;;;10.36;100.00
85224;BME280;75619;51.316;4.824;2024-02-16T01:23:52;100690.44;;;10.34;100.00
85224;BME280;75619;51.316;4.824;2024-02-16T01:26:18;100698.34;;;10.34;100.00
85224;BME280;75619;51.316;4.824;2024-02-16T01:28:44;100695.00;;;10.32;100.00
85224;BME280;75619;51.316;4.824;2024-02-16T01:31:09;100697.84;;;10.29;100.00
85224;BME280;75619;51.316;4.824;2024-02-16T01:33:36;100706.25;;;10.23;100.00
85224;BME280;75619;51.316;4.824;2024-02-16T01:36:02;100702.88;;;10.21;100.00
85224;BME280;75619;51.316;4.824;2024-02-16T01:38:28;100706.13;;;10.24;100.00
85224;BME280;75619;51.316;4.824;2024-02-16T01:40:54;100703.13;;;10.29;100.00
85224;BME280;75619;51.316;4.824;2024-02-16T01:43:20;100702.56;;;10.36;100.00
85224;BME280;75619;51.316;4.824;2024-02-16T01:45:46;100699.47;;;10.42;100.00
85224;BME280;75619;51.316;4.824;2024-02-16T01:48:15;100699.59;;;10.52;100.00
85224;BME280;75619;51.316;4.824;2024-02-16T01:50:44;100711.72;;;10.54;100.00
85224;BME280;75619;51.316;4.824;2024-02-16T01:53:12;100699.25;;;10.56;100.00
85224;BME280;75619;51.316;4.824;2024-02-16T01:55:39;100701.16;;;10.54;100.00
85224;BME280;75619;51.316;4.824;2024-02-16T01:58:04;100706.31;;;10.56;100.00
85224;BME280;75619;51.316;4.824;2024-02-16T02:00:30;100700.91;;;10.57;100.00
85224;BME280;75619;51.316;4.824;2024-02-16T02:02:56;100689.53;;;10.57;100.00
85224;BME280;75619;51.316;4.824;2024-02-16T02:05:23;100688.88;;;10.53;100.00
85224;BME280;75619;51.316;4.824;2024-02-16T02:07:48;100691.16;;;10.47;100.00
85224;BME280;75619;51.316;4.824;2024-02-16T02:10:14;100693.19;;;10.43;100.00
85224;BME280;75619;51.316;4.824;2024-02-16T02:12:42;100690.44;;;10.45;100.00
85224;BME280;75619;51.316;4.824;2024-02-16T02:15:08;100694.66;;;10.47;100.00
85224;BME280;75619;51.316;4.824;2024-02-16T02:17:35;100687.34;;;10.51;100.00
85224;BME280;75619;51.316;4.824;2024-02-16T02:20:01;100687.81;;;10.56;100.00
85224;BME280;75619;51.316;4.824;2024-02-16T02:22:27;100681.47;;;10.58;100.00
85224;BME280;75619;51.316;4.824;2024-02-16T02:24:53;100692.28;;;10.67;100.00
85224;BME280;75619;51.316;4.824;2024-02-16T02:27:21;100682.44;;;10.69;100.00
85224;BME280;75619;51.316;4.824;2024-02-16T02:29:47;100682.69;;;10.77;100.00
85224;BME280;75619;51.316;4.824;2024-02-16T02:32:13;100682.69;;;10.77;100.00
85224;BME280;75619;51.316;4.824;2024-02-16T02:34:38;100684.00;;;10.82;100.00
85224;BME280;75619;51.316;4.824;2024-02-16T02:37:05;100664.19;;;10.88;100.00
85224;BME280;75619;51.316;4.824;2024-02-16T02:39:31;100668.84;;;10.95;100.00
85224;BME280;75619;51.316;4.824;2024-02-16T02:41:57;100669.09;;;11.03;100.00
85224;BME280;75619;51.316;4.824;2024-02-16T02:44:26;100671.72;;;11.03;100.00
85224;BME280;75619;51.316;4.824;2024-02-16T02:46:52;100674.72;;;10.99;100.00
85224;BME280;75619;51.316;4.824;2024-02-16T02:49:18;100675.84;;;10.96;100.00
85224;BME280;75619;51.316;4.824;2024-02-16T02:51:44;100661.50;;;10.99;100.00
85224;BME280;75619;51.316;4.824;2024-02-16T02:54:09;100664.06;;;11.00;100.00
85224;BME280;75619;51.316;4.824;2024-02-16T02:56:35;100666.69;;;11.00;100.00
85224;BME280;75619;51.316;4.824;2024-02-16T02:59:01;100654.56;;;11.09;100.00
85224;BME280;75619;51.316;4.824;2024-02-16T03:01:26;100655.88;;;11.03;100.00
85224;BME280;75619;51.316;4.824;2024-02-16T03:03:52;100663.34;;;10.98;100.00
85224;BME280;75619;51.316;4.824;2024-02-16T03:06:18;100663.22;;;11.00;100.00
85224;BME280;75619;51.316;4.824;2024-02-16T03:08:44;100665.25;;;10.96;100.00
85224;BME280;75619;51.316;4.824;2024-02-16T03:11:09;100666.22;;;10.95;100.00
85224;BME280;75619;51.316;4.824;2024-02-16T03:13:36;100652.97;;;10.95;100.00
85224;BME280;75619;51.316;4.824;2024-02-16T03:16:01;100659.97;;;10.96;100.00
85224;BME280;75619;51.316;4.824;2024-02-16T03:18:33;100656.72;;;10.93;100.00
85224;BME280;75619;51.316;4.824;2024-02-16T03:21:02;100663.22;;;11.00;100.00
85224;BME280;75619;51.316;4.824;2024-02-16T03:23:28;100659.13;;;10.96;100.00
85224;BME280;75619;51.316;4.824;2024-02-16T03:25:53;100656.47;;;10.96;100.00
85224;BME280;75619;51.316;4.824;2024-02-16T03:28:20;100661.91;;;10.94;100.00
85224;BME280;75619;51.316;4.824;2024-02-16T03:30:46;100659.47;;;10.91;100.00
85224;BME280;75619;51.316;4.824;2024-02-16T03:33:12;100660.31;;;11.03;100.00
85224;BME280;75619;51.316;4.824;2024-02-16T03:35:39;100654.91;;;11.04;100.00
85224;BME280;75619;51.316;4.824;2024-02-16T03:38:05;100651.41;;;11.04;100.00
85224;BME280;75619;51.316;4.824;2024-02-16T03:40:31;100658.28;;;11.06;100.00
85224;BME280;75619;51.316;4.824;2024-02-16T03:42:57;100660.91;;;11.06;100.00
85224;BME280;75619;51.316;4.824;2024-02-16T03:45:23;100668.13;;;11.04;100.00
85224;BME280;75619;51.316;4.824;2024-02-16T03:47:49;100655.88;;;11.03;100.00
85224;BME280;75619;51.316;4.824;2024-02-16T03:50:18;100662.94;;;11.03;100.00
85224;BME280;75619;51.316;4.824;2024-02-16T03:52:44;100665.00;;;10.99;100.00
85224;BME280;75619;51.316;4.824;2024-02-16T03:55:09;100663.06;;;11.01;100.00
85224;BME280;75619;51.316;4.824;2024-02-16T03:57:35;100659.13;;;10.96;100.00
85224;BME280;75619;51.316;4.824;2024-02-16T04:00:02;100660.91;;;11.06;100.00
85224;BME280;75619;51.316;4.824;2024-02-16T04:02:27;100656.84;;;11.02;100.00
85224;BME280;75619;51.316;4.824;2024-02-16T04:04:53;100660.19;;;11.04;100.00
85224;BME280;75619;51.316;4.824;2024-02-16T04:07:18;100659.34;;;11.04;100.00
85224;BME280;75619;51.316;4.824;2024-02-16T04:09:44;100660.91;;;11.06;100.00
85224;BME280;75619;51.316;4.824;2024-02-16T04:12:10;100661.06;;;11.05;100.00
85224;BME280;75619;51.316;4.824;2024-02-16T04:14:36;100661.88;;;11.05;100.00
85224;BME280;75619;51.316;4.824;2024-02-16T04:17:02;100656.84;;;11.02;100.00
85224;BME280;75619;51.316;4.824;2024-02-16T04:19:28;100668.63;;;10.98;100.00
85224;BME280;75619;51.316;4.824;2024-02-16T04:21:54;100664.78;;;11.02;100.00
85224;BME280;75619;51.316;4.824;2024-02-16T04:24:20;100671.00;;;11.12;100.00
85224;BME280;75619;51.316;4.824;2024-02-16T04:26:45;100666.81;;;11.10;100.00
85224;BME280;75619;51.316;4.824;2024-02-16T04:29:11;100671.16;;;11.11;100.00
85224;BME280;75619;51.316;4.824;2024-02-16T04:31:40;100663.44;;;11.08;100.00
85224;BME280;75619;51.316;4.824;2024-02-16T04:34:08;100658.28;;;11.06;100.00
85224;BME280;75619;51.316;4.824;2024-02-16T04:36:34;100663.22;;;11.11;100.00
85224;BME280;75619;51.316;4.824;2024-02-16T04:39:00;100676.31;;;11.12;100.00
85224;BME280;75619;51.316;4.824;2024-02-16T04:41:26;100666.09;;;11.19;100.00
85224;BME280;75619;51.316;4.824;2024-02-16T04:43:52;100665.47;;;11.15;100.00
85224;BME280;75619;51.316;4.824;2024-02-16T04:46:18;100670.16;;;11.23;100.00
85224;BME280;75619;51.316;4.824;2024-02-16T04:48:44;100675.31;;;11.24;100.00
85224;BME280;75619;51.316;4.824;2024-02-16T04:51:13;100673.97;;;11.30;100.00
85224;BME280;75619;51.316;4.824;2024-02-16T04:53:38;100676.13;;;11.36;100.00
85224;BME280;75619;51.316;4.824;2024-02-16T04:56:05;100677.22;;;11.45;100.00
85224;BME280;75619;51.316;4.824;2024-02-16T04:58:31;100689.97;;;11.39;100.00
85224;BME280;75619;51.316;4.824;2024-02-16T05:00:57;100684.69;;;11.39;100.00
85224;BME280;75619;51.316;4.824;2024-02-16T05:03:23;100689.13;;;11.39;100.00
85224;BME280;75619;51.316;4.824;2024-02-16T05:05:49;100690.22;;;11.36;100.00
85224;BME280;75619;51.316;4.824;2024-02-16T05:08:15;100683.97;;;11.37;100.00
85224;BME280;75619;51.316;4.824;2024-02-16T05:10:40;100672.41;;;11.38;100.00
85224;BME280;75619;51.316;4.824;2024-02-16T05:13:06;100682.88;;;11.40;100.00
85224;BME280;75619;51.316;4.824;2024-02-16T05:15:31;100680.34;;;11.38;100.00
85224;BME280;75619;51.316;4.824;2024-02-16T05:17:58;100686.34;;;11.40;100.00
85224;BME280;75619;51.316;4.824;2024-02-16T05:20:23;100680.47;;;11.37;100.00
85224;BME280;75619;51.316;4.824;2024-02-16T05:22:49;100689.38;;;11.36;100.00
85224;BME280;75619;51.316;4.824;2024-02-16T05:25:15;100700.56;;;11.39;100.00
85224;BME280;75619;51.316;4.824;2024-02-16T05:27:43;100687.44;;;11.38;100.00
85224;BME280;75619;51.316;4.824;2024-02-16T05:30:10;100697.66;;;11.43;100.00
85224;BME280;75619;51.316;4.824;2024-02-16T05:32:38;100688.91;;;11.42;100.00
85224;BME280;75619;51.316;4.824;2024-02-16T05:35:04;100692.50;;;11.41;100.00
85224;BME280;75619;51.316;4.824;2024-02-16T05:37:47;100696.94;;;11.40;100.00
85224;BME280;75619;51.316;4.824;2024-02-16T05:40:19;100694.31;;;11.40;100.00
85224;BME280;75619;51.316;4.824;2024-02-16T05:42:48;100695.78;;;11.33;100.00
85224;BME280;75619;51.316;4.824;2024-02-16T05:45:14;100703.72;;;11.33;100.00
85224;BME280;75619;51.316;4.824;2024-02-16T05:47:42;100708.75;;;11.36;100.00
85224;BME280;75619;51.316;4.824;2024-02-16T05:50:11;100712.38;;;11.35;100.00
85224;BME280;75619;51.316;4.824;2024-02-16T05:52:38;100714.16;;;11.35;100.00
85224;BME280;75619;51.316;4.824;2024-02-16T05:55:05;100717.78;;;11.23;100.00
85224;BME280;75619;51.316;4.824;2024-02-16T05:57:31;100719.47;;;11.24;100.00
85224;BME280;75619;51.316;4.824;2024-02-16T05:59:57;100715.63;;;11.17;100.00
85224;BME280;75619;51.316;4.824;2024-02-16T06:02:23;100714.78;;;11.16;100.00
85224;BME280;75619;51.316;4.824;2024-02-16T06:04:55;100720.31;;;11.24;100.00
85224;BME280;75619;51.316;4.824;2024-02-16T06:07:21;100728.34;;;11.34;100.00
85224;BME280;75619;51.316;4.824;2024-02-16T06:09:46;100731.72;;;11.36;100.00
85224;BME280;75619;51.316;4.824;2024-02-16T06:12:12;100728.84;;;11.28;100.00
85224;BME280;75619;51.316;4.824;2024-02-16T06:14:38;100722.81;;;11.26;100.00
85224;BME280;75619;51.316;4.824;2024-02-16T06:17:04;100729.06;;;11.36;100.00
85224;BME280;75619;51.316;4.824;2024-02-16T06:19:32;100727.28;;;11.36;100.00
85224;BME280;75619;51.316;4.824;2024-02-16T06:22:07;100732.06;;;11.43;100.00
85224;BME280;75619;51.316;4.824;2024-02-16T06:24:37;100734.63;;;11.44;100.00
85224;BME280;75619;51.316;4.824;2024-02-16T06:27:03;100739.19;;;11.42;100.00
85224;BME280;75619;51.316;4.824;2024-02-16T06:29:29;100742.44;;;11.46;100.00
85224;BME280;75619;51.316;4.824;2024-02-16T06:31:59;100753.47;;;11.51;100.00
85224;BME280;75619;51.316;4.824;2024-02-16T06:34:29;100750.94;;;11.60;100.00
85224;BME280;75619;51.316;4.824;2024-02-16T06:36:57;100755.53;;;11.58;100.00
85224;BME280;75619;51.316;4.824;2024-02-16T06:39:24;100765.84;;;11.61;100.00
85224;BME280;75619;51.316;4.824;2024-02-16T06:41:50;100764.91;;;11.62;100.00
85224;BME280;75619;51.316;4.824;2024-02-16T06:44:17;100772.53;;;11.67;100.00
85224;BME280;75619;51.316;4.824;2024-02-16T06:46:43;100777.06;;;11.65;100.00
85224;BME280;75619;51.316;4.824;2024-02-16T06:49:09;100782.25;;;11.66;100.00
85224;BME280;75619;51.316;4.824;2024-02-16T06:51:36;100776.97;;;11.66;100.00
85224;BME280;75619;51.316;4.824;2024-02-16T06:54:03;100771.53;;;11.68;100.00
85224;BME280;75619;51.316;4.824;2024-02-16T06:56:29;100788.72;;;11.73;100.00
85224;BME280;75619;51.316;4.824;2024-02-16T06:58:56;100791.28;;;11.75;100.00
85224;BME280;75619;51.316;4.824;2024-02-16T07:01:21;100795.25;;;11.80;100.00
85224;BME280;75619;51.316;4.824;2024-02-16T07:03:47;100805.19;;;11.88;100.00
85224;BME280;75619;51.316;4.824;2024-02-16T07:06:13;100803.03;;;11.93;100.00
85224;BME280;75619;51.316;4.824;2024-02-16T07:08:40;100796.75;;;11.94;100.00
85224;BME280;75619;51.316;4.824;2024-02-16T07:11:06;100798.59;;;11.93;100.00
85224;BME280;75619;51.316;4.824;2024-02-16T07:13:33;100805.28;;;12.08;100.00
85224;BME280;75619;51.316;4.824;2024-02-16T07:16:00;100812.28;;;12.09;100.00
85224;BME280;75619;51.316;4.824;2024-02-16T07:18:25;100805.03;;;12.11;100.00
85224;BME280;75619;51.316;4.824;2024-02-16T07:20:51;100803.25;;;12.12;100.00
85224;BME280;75619;51.316;4.824;2024-02-16T07:23:17;100802.03;;;12.16;100.00
85224;BME280;75619;51.316;4.824;2024-02-16T07:25:43;100805.63;;;12.15;100.00
85224;BME280;75619;51.316;4.824;2024-02-16T07:28:08;100812.50;;;12.17;100.00
85224;BME280;75619;51.316;4.824;2024-02-16T07:30:35;100817.88;;;12.27;100.00
85224;BME280;75619;51.316;4.824;2024-02-16T07:33:05;100817.69;;;12.40;100.00
85224;BME280;75619;51.316;4.824;2024-02-16T07:35:30;100821.19;;;12.40;100.00
85224;BME280;75619;51.316;4.824;2024-02-16T07:37:56;100821.47;;;12.37;100.00
85224;BME280;75619;51.316;4.824;2024-02-16T07:40:21;100829.63;;;12.45;100.00
85224;BME280;75619;51.316;4.824;2024-02-16T07:42:47;100834.44;;;12.51;100.00
85224;BME280;75619;51.316;4.824;2024-02-16T07:45:13;100843.03;;;12.64;100.00
85224;BME280;75619;51.316;4.824;2024-02-16T07:47:42;100841.03;;;12.57;100.00
85224;BME280;75619;51.316;4.824;2024-02-16T07:50:08;100841.50;;;12.62;100.00
85224;BME280;75619;51.316;4.824;2024-02-16T07:52:34;100851.13;;;12.63;100.00
85224;BME280;75619;51.316;4.824;2024-02-16T07:55:00;100848.09;;;12.67;100.00
85224;BME280;75619;51.316;4.824;2024-02-16T07:57:27;100849.91;;;12.67;100.00
85224;BME280;75619;51.316;4.824;2024-02-16T07:59:52;100857.72;;;12.68;100.00
85224;BME280;75619;51.316;4.824;2024-02-16T08:02:18;100857.63;;;12.70;100.00
85224;BME280;75619;51.316;4.824;2024-02-16T08:04:48;100870.03;;;12.69;100.00
85224;BME280;75619;51.316;4.824;2024-02-16T08:07:14;100862.03;;;12.80;100.00
85224;BME280;75619;51.316;4.824;2024-02-16T08:09:45;100871.66;;;12.81;100.00
85224;BME280;75619;51.316;4.824;2024-02-16T08:12:15;100865.72;;;12.89;100.00
85224;BME280;75619;51.316;4.824;2024-02-16T08:14:40;100875.72;;;12.85;100.00
85224;BME280;75619;51.316;4.824;2024-02-16T08:17:07;100881.50;;;12.90;100.00
85224;BME280;75619;51.316;4.824;2024-02-16T08:19:34;100887.16;;;12.97;100.00
85224;BME280;75619;51.316;4.824;2024-02-16T08:22:04;100892.91;;;13.02;100.00
85224;BME280;75619;51.316;4.824;2024-02-16T08:24:34;100901.84;;;13.01;100.00
85224;BME280;75619;51.316;4.824;2024-02-16T08:26:59;100903.66;;;13.00;100.00
85224;BME280;75619;51.316;4.824;2024-02-16T08:29:25;100901.69;;;13.14;100.00
85224;BME280;75619;51.316;4.824;2024-02-16T08:31:51;100901.09;;;13.10;100.00
85224;BME280;75619;51.316;4.824;2024-02-16T08:34:17;100907.94;;;13.13;100.00
85224;BME280;75619;51.316;4.824;2024-02-16T08:36:49;100913.97;;;13.15;100.00
85224;BME280;75619;51.316;4.824;2024-02-16T08:39:16;100919.34;;;13.24;100.00
85224;BME280;75619;51.316;4.824;2024-02-16T08:41:42;100917.44;;;13.26;100.00
85224;BME280;75619;51.316;4.824;2024-02-16T08:44:09;100928.63;;;13.30;100.00
85224;BME280;75619;51.316;4.824;2024-02-16T08:46:36;100926.28;;;13.36;100.00
85224;BME280;75619;51.316;4.824;2024-02-16T08:49:02;100931.19;;;13.41;100.00
85224;BME280;75619;51.316;4.824;2024-02-16T08:51:28;100928.53;;;13.41;100.00
85224;BME280;75619;51.316;4.824;2024-02-16T08:53:54;100936.97;;;13.46;100.00
85224;BME280;75619;51.316;4.824;2024-02-16T08:56:20;100932.66;;;13.45;100.00
85224;BME280;75619;51.316;4.824;2024-02-16T08:58:45;100939.09;;;13.52;100.00
85224;BME280;75619;51.316;4.824;2024-02-16T09:01:11;100937.00;;;13.55;100.00
85224;BME280;75619;51.316;4.824;2024-02-16T09:03:37;100940.50;;;13.56;100.00
85224;BME280;75619;51.316;4.824;2024-02-16T09:06:04;100940.00;;;13.62;100.00
85224;BME280;75619;51.316;4.824;2024-02-16T09:08:30;100939.81;;;13.54;100.00
85224;BME280;75619;51.316;4.824;2024-02-16T09:11:04;100953.16;;;13.63;100.00
85224;BME280;75619;51.316;4.824;2024-02-16T09:13:33;100952.31;;;13.63;100.00
85224;BME280;75619;51.316;4.824;2024-02-16T09:16:00;100953.41;;;13.60;100.00
85224;BME280;75619;51.316;4.824;2024-02-16T09:18:26;100953.03;;;13.65;100.00
85224;BME280;75619;51.316;4.824;2024-02-16T09:20:52;100956.63;;;13.64;100.00
85224;BME280;75619;51.316;4.824;2024-02-16T09:23:17;100966.69;;;13.60;100.00
85224;BME280;75619;51.316;4.824;2024-02-16T09:25:43;100965.31;;;13.66;100.00
85224;BME280;75619;51.316;4.824;2024-02-16T09:28:11;100968.97;;;13.65;100.00
85224;BME280;75619;51.316;4.824;2024-02-16T09:30:38;100972.72;;;13.62;100.00
85224;BME280;75619;51.316;4.824;2024-02-16T09:33:03;100978.88;;;13.63;100.00
85224;BME280;75619;51.316;4.824;2024-02-16T09:35:29;100984.63;;;13.68;100.00
85224;BME280;75619;51.316;4.824;2024-02-16T09:37:55;100990.06;;;13.66;100.00
85224;BME280;75619;51.316;4.824;2024-02-16T09:40:21;100988.28;;;13.67;100.00
85224;BME280;75619;51.316;4.824;2024-02-16T09:42:49;100997.47;;;13.63;100.00
85224;BME280;75619;51.316;4.824;2024-02-16T09:45:16;101005.56;;;13.61;100.00
85224;BME280;75619;51.316;4.824;2024-02-16T09:47:45;101003.03;;;13.60;100.00
85224;BME280;75619;51.316;4.824;2024-02-16T09:50:15;101008.22;;;13.61;100.00
85224;BME280;75619;51.316;4.824;2024-02-16T09:52:42;101018.19;;;13.69;100.00
85224;BME280;75619;51.316;4.824;2024-02-16T09:55:13;101017.53;;;13.56;100.00
85224;BME280;75619;51.316;4.824;2024-02-16T09:57:39;101025.50;;;13.56;100.00
85224;BME280;75619;51.316;4.824;2024-02-16T10:00:05;101039.88;;;13.53;100.00
85224;BME280;75619;51.316;4.824;2024-02-16T10:02:45;101036.41;;;13.53;100.00
85224;BME280;75619;51.316;4.824;2024-02-16T10:05:18;101038.34;;;13.51;100.00
85224;BME280;75619;51.316;4.824;2024-02-16T10:07:45;101049.50;;;13.45;100.00
85224;BME280;75619;51.316;4.824;2024-02-16T10:10:29;101061.41;;;13.50;100.00
85224;BME280;75619;51.316;4.824;2024-02-16T10:13:07;101065.53;;;13.43;100.00
85224;BME280;75619;51.316;4.824;2024-02-16T10:15:34;101072.56;;;13.33;100.00
85224;BME280;75619;51.316;4.824;2024-02-16T10:18:06;101073.56;;;13.32;100.00
85224;BME280;75619;51.316;4.824;2024-02-16T10:20:34;101081.91;;;13.28;100.00
85224;BME280;75619;51.316;4.824;2024-02-16T10:23:10;101086.50;;;13.26;100.00
85224;BME280;75619;51.316;4.824;2024-02-16T10:25:37;101091.09;;;13.24;100.00
85224;BME280;75619;51.316;4.824;2024-02-16T10:28:05;101099.16;;;13.22;100.00
85224;BME280;75619;51.316;4.824;2024-02-16T10:30:35;101102.91;;;13.20;100.00
85224;BME280;75619;51.316;4.824;2024-02-16T10:33:02;101099.16;;;13.22;100.00
85224;BME280;75619;51.316;4.824;2024-02-16T10:35:30;101109.03;;;13.20;100.00
85224;BME280;75619;51.316;4.824;2024-02-16T10:37:55;101110.41;;;13.15;100.00
85224;BME280;75619;51.316;4.824;2024-02-16T10:40:23;101120.66;;;13.19;100.00
85224;BME280;75619;51.316;4.824;2024-02-16T10:42:50;101124.53;;;13.15;100.00
85224;BME280;75619;51.316;4.824;2024-02-16T10:45:20;101113.28;;;13.00;100.00
85224;BME280;75619;51.316;4.824;2024-02-16T10:47:46;101127.06;;;13.06;100.00
85224;BME280;75619;51.316;4.824;2024-02-16T10:50:12;101138.38;;;12.96;100.00
85224;BME280;75619;51.316;4.824;2024-02-16T10:52:41;101149.50;;;12.90;100.00
85224;BME280;75619;51.316;4.824;2024-02-16T10:55:08;101144.91;;;12.81;100.00
85224;BME280;75619;51.316;4.824;2024-02-16T10:57:39;101145.25;;;12.77;100.00
85224;BME280;75619;51.316;4.824;2024-02-16T11:00:08;101152.13;;;12.68;100.00
85224;BME280;75619;51.316;4.824;2024-02-16T11:02:58;101154.31;;;12.74;100.00
85224;BME280;75619;51.316;4.824;2024-02-16T11:05:35;101161.78;;;12.69;100.00
85224;BME280;75619;51.316;4.824;2024-02-16T11:08:05;101176.25;;;12.65;100.00
85224;BME280;75619;51.316;4.824;2024-02-16T11:10:36;101178.06;;;12.65;100.00
85224;BME280;75619;51.316;4.824;2024-02-16T11:13:03;101182.75;;;12.61;100.00
85224;BME280;75619;51.316;4.824;2024-02-16T11:15:34;101195.31;;;12.59;100.00
85224;BME280;75619;51.316;4.824;2024-02-16T11:18:03;101199.88;;;12.57;100.00
85224;BME280;75619;51.316;4.824;2024-02-16T11:20:36;101205.06;;;12.59;100.00
85224;BME280;75619;51.316;4.824;2024-02-16T11:23:09;101215.91;;;12.67;100.00
85224;BME280;75619;51.316;4.824;2024-02-16T11:25:36;101212.78;;;12.62;100.00
85224;BME280;75619;51.316;4.824;2024-02-16T11:28:02;101215.66;;;12.59;100.00
85224;BME280;75619;51.316;4.824;2024-02-16T11:30:34;101213.13;;;12.57;100.00
85224;BME280;75619;51.316;4.824;2024-02-16T11:33:01;101216.25;;;12.51;100.00
85224;BME280;75619;51.316;4.824;2024-02-16T11:35:26;101222.97;;;12.44;100.00
85224;BME280;75619;51.316;4.824;2024-02-16T11:37:52;101223.22;;;12.41;100.00
85224;BME280;75619;51.316;4.824;2024-02-16T11:40:17;101227.09;;;12.37;100.00
85224;BME280;75619;51.316;4.824;2024-02-16T11:42:44;101233.06;;;12.28;100.00
85224;BME280;75619;51.316;4.824;2024-02-16T11:45:12;101235.31;;;12.22;100.00
85224;BME280;75619;51.316;4.824;2024-02-16T11:47:37;101238.31;;;12.17;100.00
85224;BME280;75619;51.316;4.824;2024-02-16T11:50:08;101243.75;;;12.15;100.00
85224;BME280;75619;51.316;4.824;2024-02-16T11:52:38;101248.09;;;12.16;100.00
85224;BME280;75619;51.316;4.824;2024-02-16T11:55:07;101246.84;;;12.09;100.00
85224;BME280;75619;51.316;4.824;2024-02-16T11:57:34;101256.59;;;12.09;100.00
85224;BME280;75619;51.316;4.824;2024-02-16T12:00:02;101258.97;;;12.01;100.00
85224;BME280;75619;51.316;4.824;2024-02-16T12:02:35;101269.69;;;11.99;100.00
85224;BME280;75619;51.316;4.824;2024-02-16T12:05:02;101268.84;;;11.99;100.00
85224;BME280;75619;51.316;4.824;2024-02-16T12:07:28;101277.84;;;11.96;100.00
85224;BME280;75619;51.316;4.824;2024-02-16T12:09:58;101274.34;;;11.96;100.00
85224;BME280;75619;51.316;4.824;2024-02-16T12:12:25;101272.88;;;11.92;100.00
85224;BME280;75619;51.316;4.824;2024-02-16T12:14:52;101280.09;;;11.90;100.00
85224;BME280;75619;51.316;4.824;2024-02-16T12:17:18;101282.53;;;11.93;100.00
85224;BME280;75619;51.316;4.824;2024-02-16T12:19:44;101289.44;;;11.95;100.00
85224;BME280;75619;51.316;4.824;2024-02-16T12:22:23;101293.53;;;11.99;100.00
85224;BME280;75619;51.316;4.824;2024-02-16T12:24:50;101298.00;;;11.99;100.00
85224;BME280;75619;51.316;4.824;2024-02-16T12:27:17;101296.13;;;11.88;100.00
85224;BME280;75619;51.316;4.824;2024-02-16T12:29:44;101305.66;;;11.91;100.00
85224;BME280;75619;51.316;4.824;2024-02-16T12:32:11;101316.25;;;11.91;100.00
85224;BME280;75619;51.316;4.824;2024-02-16T12:34:36;101311.06;;;11.89;100.00
85224;BME280;75619;51.316;4.824;2024-02-16T12:37:05;101323.47;;;11.89;100.00
85224;BME280;75619;51.316;4.824;2024-02-16T12:39:36;101320.66;;;11.79;100.00